場外

2019/07/24

定点 富山空港 2019/7/24 wed

朝から青空が広がっていますが、水分も多目。いろいろなところに雲がもくもく。

RJNT 232300Z 13003KT 080V240 9999 FEW030 27/21 Q1007

20190724_rjnt_00ja80an

ANA313 RJTT-RJNT JA80AN B737-881

RJNT 240000Z VRB02KT 9999 FEW030 28/22 Q1007

20190724_rjnt_01ja80an

暑いので離陸距離が伸びているようで・・ 梅雨明け

20190724_rjnt_02ja80an

ANA316 RJNT-RJTT JA80AN B737-881

RJNT 240100Z 32003KT 250V060 9999 FEW030 30/23 Q1007

20190724_rjnt_03ja6502

JA6502 AS350B3 AKF

20190724_rjnt_04ja6768

防災さんも夏空が似合う

20190724_rjnt_05ja6768

JA6768 B412EP 富山県消防防災

20190724_rjnt_06ja113a

20190724_rjnt_07ja113a

ANA315 RJTT-RJNT JA113A A321-211

20190724_rjnt_08ja10ym

空港至近でドクヘリ事案発生

20190724_rjnt_09ja10ym

河での水難の模様

20190724_rjnt_10b6766

CSN613 ZYTL-RJNT B-6766 A320-232

20190724_rjnt_11b6766

RJNT 240200Z 28004KT 220V350 9999 SCT030 30/23 Q1006

20190724_rjnt_12ja139t

JA139T AW139 富山県警察

20190724_rjnt_13fvc

紆余曲折あって、ドクヘリランデブーは南運動公園

20190724_rjnt_14ja10ym

ドクター達は日陰で救急車待ち

20190724_rjnt_15ja10ym

JA10YM A109SP SAK 富山県ドクターヘリ

20190724_rjnt_16fvc

結局、ドクター同乗で市民病院搬送の模様

20190724_rjnt_17ja10ym

ドクヘリさんも出発

20190724_rjnt_18ja10ym

20190724_rjnt_19ja10ym

市民病院でドクターピックアップしてから帰投の模様

20190724_rjnt_20ja113a

20190724_rjnt_21ja113a

ANA1181 RJNT-RJCC JA113A A321-211

20190724_rjnt_22ja113a

ジャストクロスで煽られています。

20190724_rjnt_23ja139t

JA139T 警察さんは山岳事案に出動

RJNT 240300Z 28009KT 9999 VCSH FEW020 BKN030 30/23 Q1006

20190724_rjnt_24b6766

20190724_rjnt_25b6766

CSN614 RJNT-ZYTL B-6766 A320-232

20190724_rjnt_26b6766

20190724_rjnt_27ja139t

20190724_rjnt_28ja139t

JA139T 病院搬送して帰投。夏は忙しくなる。

 

| | コメント (0)

2019/07/07

懐古:第7高射特科連隊創隊二十周年静内駐屯地創設三十七周年記念行事他 静内駐屯地他 2001/7/22 sun

7月7日は七夕 そして、今年の静内駐屯地創設記念行事の日ということで、ずっと前から書きかけの2001年の静内駐屯地訪問の記録を公開。

前日の大湊の後、大間から津軽海峡をフェリーで渡り、列車で苫小牧。翌日早朝レンタカーで出発。静内まで来ました。

懐古:鉞紀行 大湊飛行場・大湊港 2001/7/21 sat

20010722_0shizunai_00shizunaist

JR静内駅 駐屯地は東静内が最寄

20010722_0shizunai_01jg

のんびり駐屯地着は10時

20010722_0shizunai_02jg

配属主隊は、第7師団隷下第7高射特科連隊

20010722_0shizunai_03jg

静内対空射撃場の監視所

20010722_0shizunai_04jg

全員でこれだけ 部隊もお客さんも少なめ

20010722_0shizunai_05jg

射場監視にOH-6が飛んでます。

20010722_0shizunai_06jg

81式短距離地対空誘導弾 第5高射中隊

20010722_0shizunai_07jg

怪しいアンテナ群

20010722_0shizunai_08jg31192

JG31192 OH-6D VII

20010722_0shizunai_09jg

87式自走高射機関砲が機動を披露 第3高射中隊(東千歳)

20010722_0shizunai_10jg

続いて実弾射撃の準備に入ります。

20010722_0shizunai_11jg

OH-6がレンジ内にいる漁船の排除に向かいました。

20010722_0shizunai_12jg

バルゥルゥルゥって 感じ出てない これは第1中隊でした。

20010722_0shizunai_13jg

ミサイル運搬ローダー ホークミサイル用ですね

20010722_0shizunai_14jg

無人偵察機(CHUKAR-R) 第101無人機偵察隊

20010722_0shizunai_15jg

高速標的機(CHUKAR-III)

20010722_0shizunai_16jg

低速標的機(RCAT)

20010722_0shizunai_17jg

ありゃ、説明撮り忘れ

20010722_0shizunai_18jg_20190707215401

改良ホーク

20010722_0shizunai_19jg

いよいよ短SAMの実弾発射の準備

20010722_0shizunai_20jg

標的機が発進

20010722_0shizunai_21jg

短SAM実弾発射 弾着は遠い海上で、なんだか解らず 実弾発射は公開時間の最後の方なので、これにて記念行事は終了。

20010722_1erimo_30samanist

そのまま車で襟裳岬を南下 日高本線終着の様似駅

20010722_1erimo_31erimor

どこでも、茸狩り

20010722_1erimo_32erimor

空自襟裳分屯基地 第36警戒隊

20010722_1erimo_33erimomisakilh

やってきました襟裳岬

20010722_1erimo_34erimomisakilh

霧信号所

20010722_1erimo_35erimomisakilh

襟裳岬灯台と無線方位信号所

20010722_1erimo_36erimomisakilh

この日は、襟裳岬の灯台至近の民宿に宿泊。

 

| | コメント (0)

2019/06/29

定点 富山空港 2019/6/29 sat

巷では、大阪上空を飛ぶ謎の飛行機と伊丹のエアフェース・ワンで沸いていますが、小生は地道に河原で活動。

RJNT 282300Z VRB02KT 9000 VCSH FEW008 SCT060 BKN080 23/21 Q1001

20190629_rjnt_00ja120n

昨日、名古屋から往復して、夕方羽田から飛来した中日本のサイテーション。お泊りなんて・・ で、出発準備中。

20190629_rjnt_01ja82an

20190629_rjnt_02ja82an

ANA313 RJTT-RJNT JA82AN B737-881

RJNT 290000Z VRB02KT 9999 FEW010 BKN100 BKN/// 24/21 Q1001

20190629_rjnt_03ja120n

飛来の理由は、わかりませんが・・

20190629_rjnt_04ja120n

JA120N RJNT-RJNA C560 NNK

20190629_rjnt_05ja120n

また来てくださいね。

20190629_rjnt_06ja82an

20190629_rjnt_07ja82an

ANA316 RJNT-RJTT JA82AN B737-881

RJNT 290100Z 36003KT 310V030 9999 FEW010 SCT060 BKN100 25/21 Q1001

20190629_rjnt_08ja10ym

316が飛び立ったところで、ドクヘリ入感。近隣なのでアタック。

20190629_rjnt_09ja10ym

なんとか離陸に間に合いました。 太郎丸公園

20190629_rjnt_10ja10ym

JA10YM A109SP SAK 富山県ドクターヘリ

20190629_rjnt_11ja84an

20190629_rjnt_12ja84an

ANA315 RJTT-RJNT JA84AN B737-881

20190629_rjnt_13ja84an

風が北に振っているので、エンドまで

20190629_rjnt_14b9916

20190629_rjnt_15b9916

CSN613 ZYTL-RJNT B-9916 A320-232

RJNT 290200Z 35003KT 290V040 9999 FEW015 BKN050 BKN100 25/21 Q1001

20190629_rjnt_16ja84an

20190629_rjnt_17ja84an

ANA1181 RJNT-RJCC JA84AN B737-881

20190629_rjnt_18ja84an

今にも降り出しそうな空模様

RJNT 290300Z 01005KT 9999 -SHRA FEW015 BKN040 BKN080 25/21 Q1001

20190629_rjnt_19b9916

20190629_rjnt_20b9916

CSN614 RJNT-ZYTL B-9916 A320-232

20190629_rjnt_21b5269

すっかり土砂降りです。

20190629_rjnt_22b5269

CSH825 ZSPD-RJNT B-5269 B737-76D

20190629_rjnt_23b5269

RJNT 290400Z 35004KT 3000 SHRA BR FEW010 BKN015 BKN030 23/22 Q1000

20190629_rjnt_24b5269

利用客増加で7月から木・日曜が増便され、週4便に。大連便への参入は、当て馬だった模様。

 

| | コメント (0)

2019/03/29

懐古:北を飛ぶ 中標津空港 2001/7/8 sun

前日に奥尻から函館経由で丘珠に飛んでいたと思われます。(資料がみつからないので、たぶんそうだろうクラス)
翌日の本日、生憎の天候ですが、丘珠から中標津に飛んでいました。

20010708_rjcn_00ja8722

ANK481 RJCO-RJCN JA8722 YS11A-213

20010708_rjcn_01nse

中標津VOR/DME(NSE)

20010708_rjcn_02ja8722

ANK482 RJCN-RJCO JA8722 YS11A-213

乗機を見送ります。

20010708_rjcn_03insmm

中標津ILS-MM

20010708_rjcn_04ns

中標津NDB(NS)

20010708_rjcn_05ns

コンパスロケーター

20010708_rjcn_06betsukaifp

別海フライトパーク

20010708_rjcn_07rjcs

陸自別海駐屯地に隣接する計根別飛行場(RJCS)

20010708_rjcn_08notsukesakilh

野付埼灯台

20010708_rjcn_09rausulh

国境の街に来ました

20010708_rjcn_10rausulh

羅臼灯台

20010708_rjcn_11rausulh

国後島は残念ながら見えず

20010708_rjcn_12jm

羅臼国後展望塔の背後にある沿岸監視隊

20010708_rjcn_13rw08

中標津空港RW08エンド

20010708_rjcn_14ja6772

JA6772 B412EP 北海道警察「だいせつ2号」

この後、東京行きのANK840で帰京した模様です。

| | コメント (0)

2019/03/22

定点 富山空港 2019/3/22 fri 

昨日の暖かさは、どこに 寒さが戻ってきましたが、陽射しに春を感じます。
RJNT 212300Z 30008KT 9999 -SHRA FEW005 SCT010 BKN020 09/06 Q1011
20190322_rjnt_00kinyoumar5
第五金洋丸 JD3543 JP
20190322_rjnt_01indigirka
INDIGIRKA 5VDQ8 TG
20190322_rjnt_02tonbi
監視されている・・
20190322_rjnt_03ja84an
ANA313 RJTT-RJNT JA84AN B737-881
20190322_rjnt_04indigirka
入り船で接岸中
RJNT 220000Z 31007KT 260V340 9999 -SHRA FEW005 SCT010 BKN025 08/05 Q1012
20190322_rjnt_05ja84an
ANA316 RJNT-RJTT JA84AN B737-881
20190322_rjnt_07ja139t
JA139T AW139 富山県警察 西部の捜索事案から帰投
RJNT 220100Z 29004KT 250V350 9999 -SHRA FEW005 SCT020 BKN030 08/04 Q1012
20190322_rjnt_08ja02kg
今日も、空港至近でドクヘリ事案 探して急行
20190322_rjnt_09ja02kg
移乗終了 大沢野総合運動公園駐車場
20190322_rjnt_10ja02kg
救急車も退避します。
20190322_rjnt_11ja02kg
JA02KG A109E SAK 富山県ドクヘリ
20190322_rjnt_12ja02kg
この日は、この後2件出動してます。
20190322_rjnt_13ja75an
木蓮が咲き出しています。
20190322_rjnt_14ja75an
ANA315 RJTT-RJNT JA75AN B737-881
20190322_rjnt_15ja75an
ライトからのクロスで着地が伸びています。
RJNT 220100Z 29004KT 250V350 9999 -SHRA FEW005 SCT020 BKN030 08/04 Q1012
20190322_rjnt_16b18610
20190322_rjnt_17b18610
20190322_rjnt_18b18610
CAL170 RCTP-RJNT B-18610 B737-809
20190322_rjnt_19b18610
曇天で暗い空がつづいています。
20190322_rjnt_20ja75an
ANA1181 RJNT-RJCC JA75AN B737-881
RJNT 220300Z 27006KT 9999 -SHRA FEW005 SCT020 BKN030 08/05 Q1012
20190322_rjnt_21b18610
20190322_rjnt_22b18610
CAL171 RJNT-RCTP B-18610 B737-809
20190322_rjnt_23b18610
今日は、午後から防災さんが訓練。

| | コメント (0)

2019/03/20

定点 富山空港 2019/3/20 wed

本日も朝から青空。青空に急かされて、いつものチェック。
RJNT 192300Z 22004KT 190V270 CAVOK 10/03 Q1018
20190320_rjnt_00toyamabay
今朝のお船は、2艘
20190320_rjnt_01syouryumaru
鶴隆丸 JD4456 JP
20190320_rjnt_02kinyoumaru5
第五金洋丸 JD3543 JP
20190320_rjnt_03ja78an
青空に融けてる・・
20190320_rjnt_04ja78an
ANA313 RJTT-RJNT JA78AN B737-881
RJNT 200000Z 19004KT 150V250 CAVOK 13/03 Q1018
20190320_rjnt_05ja78an
メラメラは強いのですが、いつもと違った場所で
20190320_rjnt_06ja78an
20190320_rjnt_07ja78an
ANA316 RJNT-RJTT JA78AN B737-881
20190320_rjnt_08ja78an
青空に溶け込んで行きます。
RJNT 200000Z 19004KT 150V250 CAVOK 13/03 Q1018
ここで、空港至近でドクヘリ事案。当然、到着には間に合いませんが、場所を発見。
20190320_rjnt_09ja02kg
救急車が到着したところ。処置の協議中。
20190320_rjnt_10ja02kg
搬送決定 富山市大沢野運動広場
20190320_rjnt_11ja02kg
JA02KG A109E SAK 富山県ドクターへり
20190320_rjnt_12ja02kg
垂直上昇して、ゆっくり旋廻して行きました。
20190320_rjnt_13ja02kg
空港に戻ったら、すかさず次の出動で西へ
20190320_rjnt_14ja61an
20190320_rjnt_15ja61an_1
ANA315 RJTT-RJNT JA61AN B737-881
20190320_rjnt_16ja61an
白いものは、山の高いところのみに
20190320_rjnt_17ja02ap
朝日新聞さん
20190320_rjnt_18ja02ap
JA02AP MD900 ASP
RJNT 200200Z VRB04KT CAVOK 17/02 Q1017
20190320_rjnt_19b6039
20190320_rjnt_20b6039
CSN613 ZYTL-RJNT B-6039 A319-132
20190320_rjnt_21ja61an
20190320_rjnt_22ja61an
ANA1181 RJNT-RJCC JA61AN B737-881
RJNT 200300Z 03006KT 310V100 CAVOK 17/04 Q1016
20190320_rjnt_23ja02ap
JA02AP
20190320_rjnt_24b6039
20190320_rjnt_25b6039
CSN614 RJNT-ZYTL B-6039 A319-132
20190320_rjnt_26mokuren
朝はまだ硬かった花芽もほころび始めました。
ココログの仕様が変わって、以前と同じ様式にならないのだが、おいおい研究していきます。見え方がおかしいかったら、教えてね。

| | コメント (0)

2019/03/10

京都舞鶴防災フェスタ2019 不死鳥場外 2019/3/9 sat

海上自衛隊舞鶴地方隊で一風変わった防災訓練が開催された。本日の新聞紙上に出ていた、海自艦を病院船として運用する。まさに、それに向けた訓練ですな。海上自衛隊舞鶴地方隊と京都府、舞鶴市が主催となって、護衛艦ひゅうがを会場として訓練及び関係機関の広報も兼ねて防災フェスタとして開催されました。

まずは、へり護衛艦として主会場となったDDH181「ひゅうが」への飛び物編から

20190309_ddh181_00ddh181

DDH181「ひゅうが」は舞鶴港北吸埠頭に係留されています。

20190309_ddh181_01jg41894

まずは9時過ぎに陸自第3飛行隊のハンターがやって来た。

20190309_ddh181_02jg41894

「ひゅうが」は東向けに停泊し、風は東よりから。

20190309_ddh181_03jg41894

JG41894 UH-1J III

20190309_ddh181_04jg41894

「ひゅうが」艦上のコントローラーの指示を受けてアプローチ

20190309_ddh181_05jg41894

9:07 一番艦尾側のスポットに着艦

20190309_ddh181_06jg41894

要員を降ろして5分ほどで、離陸しました。

20190309_ddh181_07disp

「ひゅうが」艦内での訓練模様は、ビジョンで公開

20190309_ddh181_08bird

うみねこさんも見学

20190309_ddh181_09ja6818

JA6818 BK117C-1 京都府警「へいあん」

20190309_ddh181_10ja6818

DD130「まつゆき」艦上から眺めています。

20190309_ddh181_11ja6818

9:43 着艦

20190309_ddh181_12ja6818

京都府警察本部長を輸送してきた模様

20190309_ddh181_13ja6818

斜め前方に離艦

20190309_ddh181_14ja6004

JA6004 A109E 京都府警「みやこ」

20190309_ddh181_15ja6004

続いて、また警察へり

20190309_ddh181_16ja6004

9:59 着艦

20190309_ddh181_17ja6004

京都府知事を輸送してきた模様。

20190309_ddh181_18cl108

CL108「あおい」 舞鶴海上保安部

20190309_ddh181_19cl108

要救助者を仕込みました。

20190309_ddh181_20ja961a

海上保安庁へりによる救難展示です。

20190309_ddh181_21ja961a

要救助者を発見して・・

20190309_ddh181_22ja961a

機動救難士がホイストで降下

20190309_ddh181_23ja961a

要救助者を吊り上げ救助

20190309_ddh181_24ja961a

収容します。

20190309_ddh181_25ja961a

そのまま「ひゅうが」に救助者を移送

20190309_ddh181_26ja961a

JA961A AW139 JCG 美保航空基地「みほづる1号」

20190309_ddh181_27ja961a

10:32 着艦

20190309_ddh181_28ja961a

しばらくして離艦

20190309_ddh181_29m8435

お隣舞鶴航空基地からオスプリーさん

20190309_ddh181_30m8435

8435 SH-60K HS-23

20190309_ddh181_31m8435

11:01 着艦

20190309_ddh181_32m8435

離艦

20190309_ddh181_33ja02fd

とりは白鼻の消防防災へり

20190309_ddh181_34ja02fd

JA02FD AS365N3 京都市消防局「あたご」

20190309_ddh181_35ja02fd

11:28 着艦

20190309_ddh181_36ja02fd

風が西に振っているので、艦上で期首を西に向けて

20190309_ddh181_37ja02fd

離艦

20190309_ddh181_38ja02fd

舞鶴飛行場にご挨拶して、お帰りです。

20190309_ddh181_39m8437

舞鶴飛行場からSH

20190309_ddh181_40m8437

8437 SH-60K HS-23

20190309_ddh181_41m8437

「ひゅうが」の一般公開の為に着艦します。

20190309_ddh181_42m8437

12:22 着艦

いろいろお勉強になった、「ひゅうが」へリポートでした。

展示編に続く・・・

| | コメント (0) | トラックバック (0)

2019/02/16

ジュニア防災フェスティバル 富山県広域消防防災センター 2019/2/16 sat

今年も新年早々、ジュニア防災フェスティバルが開催されました。大きなお友達蓮も、ジュニアの邪魔にならない程度に覗いてきました。

20190216_bousaic_00bousai

いつも大人気の消防車乗車体験。今日は、生憎の雨降り。

20190216_bousaic_01jcg

初参加の伏木海上保安部

20190216_bousaic_02jcg

凛々しい「うみまる」

20190216_bousaic_03jcg

3D地図にサイコロを振って記念品を配布してました。

20190216_bousaic_04jg

自衛隊富山地方協力本部も初出展

20190216_bousaic_05bousai

防災航空隊コーナーは、もっぱら非常食が人気の的

20190216_bousaic_06mot

国土交通省TEC-FORCEからは照明車と衛星通信車

20190216_bousaic_07keisatsu

富山県警察富山南警察署はパトカーで記念撮影

20190216_bousaic_08sompo

怪しいパンダは、損保ジャパンのワークショップ

20190216_bousaic_09dog

いつものように災害救助犬の美犬さん

20190216_bousaic_10bousai

横断バルーン幕が防災センター入り口に変わりました。

20190216_bousaic_11fvc

延々と続く体験乗車

20190216_bousaic_12fvc

消防学校の古い車両は、隅のほうでお休み

20190216_bousaic_13ja6768

消防防災へりのデモフライトは、午前は中止 午後は14時過ぎから

20190216_bousaic_14ja6768

今回は、デモフライトのみで、着陸しての展示はありません

20190216_bousaic_15ja6768

まずは、要救助者役の隊員がホイスト降下

20190216_bousaic_16ja6768

雨降りなので、地上スレスレまで降りることはしなかったようだ。

20190216_bousaic_17ja6768

ここから救助デモ 

20190216_bousaic_18ja6768

一度退避した防災へりが再進入

20190216_bousaic_19ja6768

ホイストを降ろします

20190216_bousaic_20ja6768

要救助者を吊り上げ

20190216_bousaic_21ja6768

20190216_bousaic_22ja6768

20190216_bousaic_23ja6768

収容

20190216_bousaic_24ja6768

手短な展示でしたが、振り染める雨の中、安定の業です。

20190216_bousaic_25ja6768

最後にいつものお手振りファウエル

海保や自衛隊のブースが増えて、雨にも関わらず沢山の親子連れが来場して、楽しい一日になったかな。将来の隊員諸君の誕生を期待しています。

| | コメント (0) | トラックバック (0)

2019/01/10

定点 富山空港 2019/1/10 thu

徒然なるままに、いつものお出かけ

RJNT 092300Z 18004KT 150V220 9999 FEW030 BKN150 M02/M08 Q1023

20190110_rjnt_00ja8400

20190110_rjnt_01ja8400

ANA313 RJTT-RJNT JA8400 A320-211

20190110_rjnt_02elga

ELGA 5VEF3 TG

今日のお船 只今、自動車積み込み中。こうやって輸出されます。

RJNT 100000Z 16004KT 090V210 9999 FEW030 BKN140 M01/M08 Q1023

20190110_rjnt_03ja8400

20190110_rjnt_04ja8400

ANA316 RJNT-RJTT JA8400 A320-211

20190110_rjnt_05ja6512

JA6512 AS350B3 AKF

20190110_rjnt_06ja139t

JA139T AW139 富山県警察

20190110_rjnt_07ja6512

JA6512

RJNT 100100Z 16006KT 130V210 9999 FEW030 BKN140 01/M07 Q1022

20190110_rjnt_08ja6512

JA6512 帰ってきました 

20190110_rjnt_09ja6516

JA6516 AS350B3 AKF

20190110_rjnt_10ja6516

350 2機並び

20190110_rjnt_11ja70an

20190110_rjnt_12ja70an

ANA315 RJTT-RJNT JA70AN B737-881

20190110_rjnt_13tateyama

今日の立山 室堂はいつもより雪多くないかな

RJNT 100200Z 16004KT 100V210 9999 FEW010 SCT030 BKN140 02/M06 Q1020

20190110_rjnt_14ja139t

JA139T

20190110_rjnt_15b18610

20190110_rjnt_16b18610

CAL170 RCTP-RJNT B-18610 B737-809

20190110_rjnt_17ja6768

JA6768 B412EP 富山県消防防災

20190110_rjnt_18ja70an

20190110_rjnt_19ja70an

ANA1181 RJNT-RJCC JA70AN B737-881

RJNT 100300Z 16004KT 110V240 9999 FEW030 SCT100 BKN130 03/M06 Q1019

さーて、帰るっかなぁと思案していたら・・・ すわっと出動 空港の近くなので現場へ急行

20190110_rjnt_20ja10ym

ほ、間に合いました

20190110_rjnt_21ja10ym

へりでの搬送は無い様です。

20190110_rjnt_22ja10ym

エンジンスタート

20190110_rjnt_23ja10ym

JA10YM A109SP SAK 富山県ドクターヘリ

20190110_rjnt_24ja10ym

警戒の署員に言われましたが、ゴミが飛んでくるので、気をつけて・・・ その通りです。

20190110_rjnt_25b18610

空港に戻ると、丁度出発

20190110_rjnt_26b18610

20190110_rjnt_27b18610

RJNT 100400Z 16004KT 100V210 9999 FEW030 SCT090 BKN120 03/M06 Q1017

20190110_rjnt_28b18610

CAL171 RJNT-RCTP B-18610 B737-809

20190110_rjnt_29b18610

弱い風でしたが、あえてRW20 Pが北アルプスを見せたかったのかな。

20190110_rjnt_30ja6512

JA6512

20190110_rjnt_31ja10ym

JA10YM ドクヘリさんは、また出動で忙しい

| | コメント (0) | トラックバック (0)

2018/12/30

旧鹿島海軍航空隊跡地一般公開 美浦村 2018/11/10 sat

土浦駐屯地武器学校の見学はそこそこに切り上げて、そのまま東進。JRAで有名な美浦村の霞ヶ浦湖畔へ。

20181110_ooyama_00

東京医科歯科大学霞ヶ浦分院跡地 内覧会 なんやねん、それー

20181110_ooyama_01

実はここは旧鹿島海軍航空隊基地跡 分院で使われていた建物は、航空隊本庁舎

20181110_ooyama_02

平成28年に美浦村が跡地を取得して、保存活用されるようになります。今回その初めての公開でした。(内覧会には参加していません)

20181110_ooyama_03

この地は湖側のすべり等は昔から開放されていました。かつて草木が生い茂っていた跡地は綺麗に伐採されました。

20181110_ooyama_04

残る建物は、汽缶場

20181110_ooyama_05

りっぱな煙突です。

20181110_ooyama_06

北側は、国立環境研究所が使用しています。

20181110_ooyama_07

昔の物語を囁いてくるような時空です。

20181110_ooyama_08

ここは便所跡

20181110_ooyama_09

もう一つ建物が 自力発電所

20181110_ooyama_10

物乾場

20181110_ooyama_11

東側から臨みます

20181110_ooyama_12

配電盤は戦後の物かな

20181110_ooyama_13

このボイラーも戦後のもののよう

20181110_ooyama_14

旧軍時代の石炭ボイラー

20181110_ooyama_15

昭和14年製 安藤鉄工所

20181110_ooyama_16

煙突の下部

20181110_ooyama_17

ボイラーからの煙道が続いている。後で、この中に潜入した動画を発見もした。

20181110_ooyama_18

この原っぱには、通信講堂と講堂があったらしい

20181110_ooyama_19

これから庁舎の内覧会が始まるようです

20181110_ooyama_20

この上に掲揚ポールがついていたのかな?

20181110_ooyama_21

この築山は防空壕らしい

20181110_ooyama_22

受付のあった自動車庫では、古い資料を閲覧できた。

20181110_ooyama_23

カタパルトの写真も

20181110_ooyama_24

自動車庫の南側の揮発油庫跡前に元鹿島海軍航空隊の跡記念碑

20181110_ooyama_25

ここはいつでも見ることが出来ます。

20181110_ooyama_26

湖岸のすべり

20181110_ooyama_27

カタパルト跡

20181110_ooyama_28

東側は県の水防拠点として、ヘリポート等が整備されました。

20181110_ooyama_29

昔の面影と行楽用に使用されている景色に前から複雑な感慨を否めないでいる。

なお、この大山地区は、北側対岸が航空自衛隊百里基地があるので、北風の時は、ジェット音が聞こえます。また、GCA誘導の時は、上空を空自機が通過していくこともあります。また、南風の時は、成田のアプローチ機が東から進入してきます。

| | コメント (0) | トラックバック (0)

より以前の記事一覧

その他のカテゴリー

BI Boading record aircraft Boading record ship FlightTracking lighthouse NAVAIDS RJNT LOG SKY MASSAGE US NAVY USMC うみ おか そら てつ アクシデント エアロック チーム室屋 三沢飛行場 上五島空港 下地島空港 下総飛行場 与那国空港 中標津空港 中部国際空港 久米島空港 五島福江空港 仙台空港 伊江島空港 但馬空港 佐賀空港 入間飛行場 八尾空港 八戸飛行場 出雲空港 函館空港 利尻空港 北九州空港 十勝飛行場 千歳飛行場 博物館 厚木飛行場 名古屋飛行場 喜界空港 嘉手納飛行場 場外 壱岐空港 大分空港 大湊飛行場 大阪国際空港 大館能代空港 天草空港 奄美空港 奥尻空港 宇部山口空港 宇都宮飛行場 宮古空港 宮崎空港 富山空港 小松島飛行場 小松飛行場 屋久島空港 山形空港 岐阜飛行場 岡山空港 岩国飛行場 帯広空港 広島空港 庄内空港 徳之島空港 徳島飛行場 成田国際空港 新潟空港 新田原飛行場 旭川空港 旭川飛行場 明野飛行場 普天間飛行場 木更津飛行場 札幌飛行場 東京国際空港 松山空港 松島飛行場 松本空港 横田飛行場 沖永良部空港 波照間空港 浜松飛行場 海上保安庁 海上自衛隊 海外 熊本空港 百里飛行場 相馬原飛行場 石垣空港 石見空港 礼文空港 神戸空港 福井空港 福岡空港 福島空港 秋田空港 種子島空港 空撮 立川飛行場 築城飛行場 美保飛行場 能登空港 舞鶴飛行場 航空自衛隊 芦屋飛行場 花巻空港 調布飛行場 警務消防 那覇空港 釧路空港 長崎空港 関西国際空港 陸上自衛隊 隠岐空港 霞ヶ浦飛行場 霞目飛行場 青森空港 静岡空港 静浜飛行場 飛行場跡 飛行船 鹿児島空港 鹿屋飛行場